50.9°F
Current conditions from King Hill
Updated every 5 minutes
 
  Wednesday October 1, 2014

Station Historical Data
Daily Summary for March 23, 2012 Units:  Metric    English   Both
« Previous Day
Next Day »
Daily Weekly Monthly Yearly Custom
  High: Low: Average:
Temperature: 17.8 °C 7.1 °C 11.9 °C
Dew Point: 9 °C -6.6 °C 1.4 °C
Humidity: 85% 27% 53%
Wind Speed: 14.5km/h 0km/h 4.2km/h
Wind Gust: 30.6km/h - -
Wind- - South
Pressure: 1021.2 hPa 1017.8 hPa -
Precipitation: 0 mm    
Historical Graphs
 
 
Tabular Data for March 23, 2012
Time Temperature Dew Point Pressure Wind Wind Speed Wind Gust Humidity Daily Rainfall
00:04 13.6 °C 9 °C 1017.8 hPa Calm   6.4 km/h 74% 0 mm
00:09 13.4 °C 8.8 °C 1018.2 hPa Calm   6.4 km/h 74% 0 mm
00:14 13.2 °C 8.7 °C 1017.8 hPa Calm   9.7 km/h 74% 0 mm
00:19 13.2 °C 8.6 °C 1018.2 hPa Calm   9.7 km/h 74% 0 mm
00:24 13 °C 8.5 °C 1018.2 hPa Calm   4.8 km/h 74% 0 mm
00:29 12.8 °C 8.4 °C 1018.2 hPa Calm     75% 0 mm
00:34 12.3 °C 8.2 °C 1018.5 hPa Calm     76% 0 mm
00:40 12 °C 8.3 °C 1018.2 hPa Calm     78% 0 mm
00:49 11.5 °C 8.2 °C 1018.5 hPa Calm     80% 0 mm
00:54 11.4 °C 8.3 °C 1018.2 hPa Calm   1.6 km/h 81% 0 mm
00:59 11.5 °C 8.6 °C 1018.5 hPa Calm   1.6 km/h 82% 0 mm
01:04 11.4 °C 8.5 °C 1018.5 hPa Calm     82% 0 mm
01:09 11.3 °C 8.4 °C 1018.5 hPa Calm   1.6 km/h 82% 0 mm
01:14 11.2 °C 8.3 °C 1018.5 hPa Calm   1.6 km/h 82% 0 mm
01:19 11.2 °C 8.2 °C 1018.5 hPa Calm   1.6 km/h 82% 0 mm
01:24 11.2 °C 8.4 °C 1018.5 hPa Calm     83% 0 mm
01:30 11.3 °C 8.4 °C 1018.5 hPa NNE 1.6 km/h 6.4 km/h 82% 0 mm
01:39 11.6 °C 8.4 °C 1018.5 hPa Calm   1.6 km/h 81% 0 mm
01:44 11.6 °C 8.3 °C 1018.5 hPa NNE 1.6 km/h 8 km/h 80% 0 mm
01:49 11.6 °C 8.1 °C 1018.5 hPa Calm   8 km/h 79% 0 mm
01:54 11.4 °C 7.9 °C 1018.8 hPa Calm   6.4 km/h 79% 0 mm
01:59 11.3 °C 7.9 °C 1018.8 hPa Calm   3.2 km/h 80% 0 mm
02:04 11.3 °C 8 °C 1018.8 hPa Calm   3.2 km/h 80% 0 mm
02:09 11.4 °C 8.1 °C 1018.5 hPa Calm   1.6 km/h 80% 0 mm
02:14 11.4 °C 7.9 °C 1018.5 hPa NNE 1.6 km/h 8 km/h 79% 0 mm
02:19 11.3 °C 7.8 °C 1018.8 hPa Calm   8 km/h 79% 0 mm
02:24 11.3 °C 7.8 °C 1018.8 hPa NNE 1.6 km/h 8 km/h 79% 0 mm
02:29 11.1 °C 7.6 °C 1018.8 hPa Calm   8 km/h 79% 0 mm
02:34 11 °C 7.5 °C 1018.8 hPa Calm   8 km/h 79% 0 mm
02:39 10.9 °C 7.6 °C 1018.8 hPa Calm   6.4 km/h 80% 0 mm
02:44 10.9 °C 7.6 °C 1018.5 hPa Calm   8 km/h 80% 0 mm
02:49 10.8 °C 7.5 °C 1018.8 hPa Calm   8 km/h 80% 0 mm
02:54 10.8 °C 7.4 °C 1018.5 hPa North 1.6 km/h 6.4 km/h 80% 0 mm
02:59 10.7 °C 7.3 °C 1018.5 hPa Calm   6.4 km/h 80% 0 mm
03:04 10.6 °C 7.3 °C 1018.8 hPa NNE 1.6 km/h 8 km/h 80% 0 mm
03:09 10.4 °C 7.2 °C 1018.8 hPa Calm   8 km/h 80% 0 mm
03:14 10.4 °C 7.1 °C 1018.8 hPa Calm   4.8 km/h 80% 0 mm
03:19 10.3 °C 7 °C 1018.8 hPa Calm   8 km/h 80% 0 mm
03:24 10.2 °C 7.1 °C 1018.8 hPa Calm   8 km/h 81% 0 mm
03:29 10.1 °C 6.8 °C 1018.8 hPa Calm   4.8 km/h 80% 0 mm
03:34 10.1 °C 6.9 °C 1018.8 hPa Calm   1.6 km/h 81% 0 mm
03:39 10.1 °C 6.9 °C 1019.2 hPa Calm   1.6 km/h 81% 0 mm
03:44 10.1 °C 6.9 °C 1018.8 hPa Calm   9.7 km/h 81% 0 mm
03:49 9.9 °C 6.7 °C 1018.8 hPa Calm   9.7 km/h 80% 0 mm
03:54 9.8 °C 6.7 °C 1018.8 hPa Calm     81% 0 mm
03:59 9.7 °C 6.4 °C 1018.8 hPa Calm     80% 0 mm
04:04 9.6 °C 6.6 °C 1019.2 hPa Calm   6.4 km/h 82% 0 mm
04:09 9.5 °C 6.6 °C 1019.2 hPa Calm   6.4 km/h 82% 0 mm
04:14 9.5 °C 6.6 °C 1019.2 hPa Calm   3.2 km/h 82% 0 mm
04:19 9.5 °C 6.8 °C 1019.2 hPa Calm   3.2 km/h 83% 0 mm
04:24 9.6 °C 6.8 °C 1019.2 hPa Calm   1.6 km/h 83% 0 mm
04:30 9.6 °C 6.8 °C 1019.2 hPa Calm   1.6 km/h 83% 0 mm
04:39 9.6 °C 6.8 °C 1019.2 hPa NNE 3.2 km/h 11.3 km/h 83% 0 mm
04:44 9.6 °C 6.9 °C 1019.2 hPa Calm   11.3 km/h 83% 0 mm
04:49 9.7 °C 6.9 °C 1019.5 hPa Calm   8 km/h 83% 0 mm
04:54 9.6 °C 6.6 °C 1019.2 hPa Calm   4.8 km/h 82% 0 mm
04:59 9.4 °C 6.7 °C 1019.5 hPa Calm   6.4 km/h 83% 0 mm
05:04 9.3 °C 6.6 °C 1019.5 hPa Calm   6.4 km/h 83% 0 mm
05:09 9.2 °C 6.4 °C 1019.5 hPa Calm   6.4 km/h 83% 0 mm
05:14 9.1 °C 6.3 °C 1019.5 hPa Calm   3.2 km/h 83% 0 mm
05:19 8.9 °C 6.4 °C 1019.5 hPa Calm   4.8 km/h 84% 0 mm
05:24 8.8 °C 6.3 °C 1019.5 hPa Calm   4.8 km/h 84% 0 mm
05:29 8.8 °C 6.2 °C 1019.5 hPa NNE 1.6 km/h 6.4 km/h 84% 0 mm
05:34 8.8 °C 6.3 °C 1019.5 hPa North 1.6 km/h 8 km/h 84% 0 mm
05:39 8.7 °C 6.2 °C 1019.9 hPa Calm   8 km/h 84% 0 mm
05:44 8.6 °C 6 °C 1019.9 hPa Calm   6.4 km/h 84% 0 mm
05:49 8.5 °C 6.1 °C 1019.9 hPa Calm   9.7 km/h 85% 0 mm
05:54 8.5 °C 6.1 °C 1019.9 hPa NNE 1.6 km/h 9.7 km/h 85% 0 mm
05:59 8.6 °C 6.2 °C 1019.5 hPa NNE 3.2 km/h 12.9 km/h 85% 0 mm
06:04 8.9 °C 6.3 °C 1019.5 hPa NE 3.2 km/h 16.1 km/h 84% 0 mm
06:09 9.1 °C 6.2 °C 1019.9 hPa NE 1.6 km/h 16.1 km/h 82% 0 mm
06:14 9.1 °C 5.9 °C 1019.9 hPa NE 1.6 km/h 11.3 km/h 81% 0 mm
06:19 9.1 °C 5.9 °C 1019.9 hPa NE 3.2 km/h 12.9 km/h 81% 0 mm
06:24 9.1 °C 5.9 °C 1019.9 hPa NE 1.6 km/h 12.9 km/h 81% 0 mm
06:29 8.9 °C 5.9 °C 1019.9 hPa Calm   8 km/h 81% 0 mm
06:34 8.8 °C 5.8 °C 1020.2 hPa NNE 1.6 km/h 9.7 km/h 81% 0 mm
06:39 8.7 °C 5.6 °C 1020.2 hPa Calm   9.7 km/h 81% 0 mm
06:44 8.4 °C 5.3 °C 1020.2 hPa Calm   4.8 km/h 81% 0 mm
06:49 8.1 °C 5.2 °C 1020.2 hPa Calm   4.8 km/h 82% 0 mm
06:54 7.8 °C 5.1 °C 1020.2 hPa Calm   1.6 km/h 83% 0 mm
06:59 7.7 °C 5 °C 1020.2 hPa Calm   4.8 km/h 83% 0 mm
07:04 7.7 °C 5.2 °C 1020.5 hPa Calm   4.8 km/h 84% 0 mm
07:09 7.7 °C 5.2 °C 1020.5 hPa Calm   3.2 km/h 84% 0 mm
07:14 7.7 °C 5.1 °C 1020.5 hPa NE 3.2 km/h 11.3 km/h 84% 0 mm
07:20 7.8 °C 5.2 °C 1020.5 hPa Calm   14.5 km/h 84% 0 mm
07:25 7.9 °C 5.2 °C 1020.5 hPa NNE 1.6 km/h 14.5 km/h 83% 0 mm
07:30 8.1 °C 5.4 °C 1020.5 hPa Calm   12.9 km/h 83% 0 mm
07:35 8.2 °C 5.3 °C 1020.9 hPa Calm   12.9 km/h 82% 0 mm
07:40 8.3 °C 5.2 °C 1020.9 hPa Calm   12.9 km/h 81% 0 mm
07:49 8.3 °C 5.1 °C 1020.9 hPa Calm   9.7 km/h 80% 0 mm
07:54 8.3 °C 4.8 °C 1020.9 hPa NNE 6.4 km/h 14.5 km/h 79% 0 mm
07:59 8.3 °C 4.7 °C 1020.9 hPa NE 1.6 km/h 14.5 km/h 78% 0 mm
08:04 8.4 °C 4.8 °C 1020.9 hPa Calm   11.3 km/h 78% 0 mm
08:09 8.4 °C 4.6 °C 1020.9 hPa NE 3.2 km/h 12.9 km/h 77% 0 mm
08:14 8.3 °C 4.6 °C 1021.2 hPa Calm   12.9 km/h 77% 0 mm
08:19 8.4 °C 4.2 °C 1021.2 hPa ENE 1.6 km/h 8 km/h 75% 0 mm
08:25 8.6 °C 3.8 °C 1021.2 hPa NE 1.6 km/h 12.9 km/h 72% 0 mm
08:35 9.3 °C 3.5 °C 1021.2 hPa NE 1.6 km/h 11.3 km/h 67% 0 mm
08:45 10.5 °C 3.8 °C 1021.2 hPa Calm   11.3 km/h 63% 0 mm
08:50 11 °C 3.8 °C 1021.2 hPa North 1.6 km/h 11.3 km/h 61% 0 mm
08:55 11.2 °C 2.4 °C 1021.2 hPa NE 6.4 km/h 12.9 km/h 55% 0 mm
08:59 11.4 °C 3.2 °C 1021.2 hPa Calm   12.9 km/h 57% 0 mm
09:04 11.6 °C 2.6 °C 1021.2 hPa NE 3.2 km/h 12.9 km/h 54% 0 mm
09:09 11.7 °C 2.7 °C 1021.2 hPa NE 3.2 km/h 12.9 km/h 54% 0 mm
09:15 11.9 °C 2.9 °C 1021.2 hPa NE 1.6 km/h 12.9 km/h 54% 0 mm
09:19 12.2 °C 3.4 °C 1020.9 hPa NE 1.6 km/h 12.9 km/h 55% 0 mm
09:25 12.4 °C 2.3 °C 1020.9 hPa NNE 3.2 km/h 12.9 km/h 50% 0 mm
09:29 12.4 °C 2.3 °C 1020.9 hPa NNE 4.8 km/h 14.5 km/h 50% 0 mm
09:34 12.3 °C 1.1 °C 1020.9 hPa NE 8 km/h 14.5 km/h 46% 0 mm
09:40 12.4 °C 1.7 °C 1020.9 hPa NE 3.2 km/h 14.5 km/h 48% 0 mm
09:45 12.6 °C 0.9 °C 1020.9 hPa NNE 1.6 km/h 12.9 km/h 45% 0 mm
09:49 12.9 °C 1 °C 1020.9 hPa NNW 1.6 km/h 12.9 km/h 44% 0 mm
09:55 13.1 °C 0.8 °C 1020.9 hPa NNE 4.8 km/h 14.5 km/h 43% 0 mm
09:59 13.3 °C 1 °C 1020.9 hPa Calm   14.5 km/h 43% 0 mm
10:04 13.4 °C 1.4 °C 1020.9 hPa Calm   8 km/h 44% 0 mm
10:09 13.4 °C 0.4 °C 1020.9 hPa Calm   12.9 km/h 41% 0 mm
10:14 13.7 °C 0.7 °C 1020.9 hPa NNW 1.6 km/h 12.9 km/h 41% 0 mm
10:19 13.9 °C 0.5 °C 1021.2 hPa North 1.6 km/h 6.4 km/h 40% 0 mm
10:24 14.1 °C 0.4 °C 1021.2 hPa Calm   12.9 km/h 39% 0 mm
10:30 14.4 °C 0.3 °C 1021.2 hPa Calm   12.9 km/h 38% 0 mm
10:40 15 °C 0.4 °C 1021.2 hPa Calm   12.9 km/h 37% 0 mm
10:44 15 °C 0.8 °C 1021.2 hPa NW 6.4 km/h 12.9 km/h 38% 0 mm
10:50 15.3 °C 1.1 °C 1021.2 hPa North 1.6 km/h 12.9 km/h 38% 0 mm
10:54 15.4 °C 0.4 °C 1021.2 hPa NNE 4.8 km/h 17.7 km/h 36% 0 mm
10:59 15.3 °C 0.3 °C 1021.2 hPa NNW 6.4 km/h 17.7 km/h 36% 0 mm
11:04 15.3 °C 0.7 °C 1021.2 hPa NNW 8 km/h 16.1 km/h 37% 0 mm
11:10 15.7 °C 1 °C 1021.2 hPa North 3.2 km/h 16.1 km/h 37% 0 mm
11:14 15.8 °C -0.1 °C 1021.2 hPa North 1.6 km/h 20.9 km/h 34% 0 mm
11:19 15.6 °C -0.7 °C 1021.2 hPa North 8 km/h 22.5 km/h 33% 0 mm
11:25 15.4 °C -0.8 °C 1021.2 hPa NNE 6.4 km/h 22.5 km/h 33% 0 mm
11:35 15.3 °C 0.3 °C 1021.2 hPa North 3.2 km/h 16.1 km/h 36% 0 mm
11:40 15.4 °C 0.1 °C 1020.9 hPa North 3.2 km/h 16.1 km/h 35% 0 mm
11:44 15.4 °C -0.8 °C 1020.9 hPa NNW 9.7 km/h 17.7 km/h 33% 0 mm
11:49 15.4 °C 0.4 °C 1021.2 hPa NNW 4.8 km/h 17.7 km/h 36% 0 mm
11:54 15.4 °C -0.8 °C 1020.9 hPa WNW 14.5 km/h 27.4 km/h 33% 0 mm
11:59 15.2 °C -1.8 °C 1020.9 hPa North 4.8 km/h 27.4 km/h 31% 0 mm
12:04 15.5 °C 0.5 °C 1020.5 hPa NW 3.2 km/h 19.3 km/h 36% 0 mm
12:09 15.4 °C -1.2 °C 1020.5 hPa NW 8 km/h 22.5 km/h 32% 0 mm
12:14 15.3 °C -1.3 °C 1020.5 hPa NNW 6.4 km/h 22.5 km/h 32% 0 mm
12:20 15.5 °C -2.4 °C 1020.9 hPa NW 11.3 km/h 30.6 km/h 29% 0 mm
12:24 15.2 °C -1.8 °C 1020.9 hPa NW 9.7 km/h 30.6 km/h 31% 0 mm
12:30 14.9 °C -2.6 °C 1020.9 hPa WNW 12.9 km/h 27.4 km/h 30% 0 mm
12:35 14.6 °C -1.9 °C 1020.9 hPa NW 11.3 km/h 27.4 km/h 32% 0 mm
12:44 14.8 °C -1.7 °C 1020.9 hPa NNW 9.7 km/h 20.9 km/h 32% 0 mm
12:50 15.3 °C -1.3 °C 1020.5 hPa NNW 6.4 km/h 20.9 km/h 32% 0 mm
12:54 15.6 °C -2.4 °C 1020.5 hPa WNW 12.9 km/h 20.9 km/h 29% 0 mm
12:59 15.4 °C -1.7 °C 1020.5 hPa NW 9.7 km/h 20.9 km/h 31% 0 mm
13:04 15.6 °C -1.5 °C 1020.5 hPa NW 12.9 km/h 22.5 km/h 31% 0 mm
13:09 15.7 °C -0.1 °C 1020.5 hPa NNW 6.4 km/h 22.5 km/h 34% 0 mm
13:14 15.9 °C -0.4 °C 1020.5 hPa NW 8 km/h 19.3 km/h 33% 0 mm
13:20 15.7 °C -0.5 °C 1020.5 hPa NW 9.7 km/h 20.9 km/h 33% 0 mm
13:30 16 °C -0.7 °C 1020.2 hPa NNW 9.7 km/h 20.9 km/h 32% 0 mm
13:40 16.2 °C 0.3 °C 1020.2 hPa NNW 4.8 km/h 25.7 km/h 34% 0 mm
13:50 16.7 °C -0.1 °C 1019.9 hPa North 6.4 km/h 16.1 km/h 32% 0 mm
13:54 16.6 °C -0.6 °C 1019.5 hPa NNW 8 km/h 24.1 km/h 31% 0 mm
13:59 16.9 °C -0.8 °C 1019.5 hPa NNW 3.2 km/h 24.1 km/h 30% 0 mm
14:04 17.1 °C -0.2 °C 1019.5 hPa North 4.8 km/h 20.9 km/h 31% 0 mm
14:09 17.2 °C -0.1 °C 1019.5 hPa NNW 3.2 km/h 20.9 km/h 31% 0 mm
14:14 17.2 °C -0.1 °C 1019.5 hPa NW 4.8 km/h 19.3 km/h 31% 0 mm
14:19 17.1 °C 0.2 °C 1019.5 hPa NNW 1.6 km/h 19.3 km/h 32% 0 mm
14:25 16.7 °C -0.6 °C 1019.2 hPa North 6.4 km/h 19.3 km/h 31% 0 mm
14:35 15.7 °C -0.6 °C 1019.2 hPa NNW 4.8 km/h 30.6 km/h 33% 0 mm
14:40 15.4 °C -0.8 °C 1019.2 hPa NW 8 km/h 25.7 km/h 33% 0 mm
14:45 16.1 °C 0.2 °C 1019.2 hPa NNW 4.8 km/h 14.5 km/h 34% 0 mm
14:50 16.7 °C -0.1 °C 1019.2 hPa NNW 3.2 km/h 14.5 km/h 32% 0 mm
14:59 17.4 °C 0.1 °C 1019.2 hPa North 6.4 km/h 24.1 km/h 31% 0 mm
15:04 17.3 °C -1.4 °C 1018.8 hPa NNW 3.2 km/h 24.1 km/h 28% 0 mm
15:09 16.8 °C -1.3 °C 1018.8 hPa North 3.2 km/h 14.5 km/h 29% 0 mm
15:14 16.7 °C -0.9 °C 1018.8 hPa NNE 6.4 km/h 22.5 km/h 30% 0 mm
15:19 16.6 °C -0.6 °C 1018.5 hPa North 1.6 km/h 22.5 km/h 31% 0 mm
15:25 16.7 °C -0.6 °C 1018.5 hPa North 6.4 km/h 17.7 km/h 31% 0 mm
15:30 17.1 °C -0.6 °C 1018.5 hPa North 4.8 km/h 25.7 km/h 30% 0 mm
15:35 17.7 °C -1.6 °C 1018.2 hPa NNE 6.4 km/h 25.7 km/h 27% 0 mm
15:44 17.8 °C 0 °C 1018.5 hPa NNW 1.6 km/h 22.5 km/h 30% 0 mm
15:49 17.8 °C -0.5 °C 1018.5 hPa NW 1.6 km/h 22.5 km/h 29% 0 mm
15:54 17.7 °C -0.6 °C 1018.5 hPa North 1.6 km/h 16.1 km/h 29% 0 mm
15:59 17.6 °C -0.2 °C 1018.2 hPa NNE 6.4 km/h 16.1 km/h 30% 0 mm
16:04 17.4 °C 0.1 °C 1018.5 hPa North 9.7 km/h 19.3 km/h 31% 0 mm
16:09 17.3 °C -0.9 °C 1018.2 hPa North 4.8 km/h 19.3 km/h 29% 0 mm
16:14 17.4 °C -0.8 °C 1018.2 hPa North 6.4 km/h 17.7 km/h 29% 0 mm
16:19 17.7 °C -0.1 °C 1018.2 hPa NNW 4.8 km/h 19.3 km/h 30% 0 mm
16:25 17.6 °C -0.7 °C 1018.2 hPa North 3.2 km/h 19.3 km/h 29% 0 mm
16:30 17.1 °C -0.6 °C 1018.2 hPa NW 11.3 km/h 20.9 km/h 30% 0 mm
16:40 16.3 °C -0.4 °C 1018.2 hPa NNW 8 km/h 24.1 km/h 32% 0 mm
16:49 16.1 °C -1 °C 1018.2 hPa NNW 8 km/h 19.3 km/h 31% 0 mm
16:54 16.1 °C -1.1 °C 1018.2 hPa NW 8 km/h 19.3 km/h 31% 0 mm
16:59 16 °C -0.3 °C 1018.2 hPa NNW 1.6 km/h 19.3 km/h 33% 0 mm
17:04 15.9 °C -0.7 °C 1018.2 hPa North 8 km/h 17.7 km/h 32% 0 mm
17:09 15.6 °C -0.6 °C 1018.2 hPa North 3.2 km/h 25.7 km/h 33% 0 mm
17:14 15.3 °C -1.7 °C 1018.2 hPa North 4.8 km/h 25.7 km/h 31% 0 mm
17:19 15.2 °C -1 °C 1018.2 hPa Calm   16.1 km/h 33% 0 mm
17:24 15 °C -2 °C 1018.2 hPa North 4.8 km/h 17.7 km/h 31% 0 mm
17:30 14.8 °C -2.6 °C 1018.2 hPa NNW 3.2 km/h 17.7 km/h 30% 0 mm
17:39 14.3 °C -2.6 °C 1018.2 hPa NNE 1.6 km/h 14.5 km/h 31% 0 mm
17:44 14.2 °C -2.7 °C 1018.2 hPa North 1.6 km/h 14.5 km/h 31% 0 mm
17:49 14.1 °C -3.2 °C 1018.2 hPa NNW 1.6 km/h 9.7 km/h 30% 0 mm
17:54 14.2 °C -2.7 °C 1018.2 hPa NNE 1.6 km/h 14.5 km/h 31% 0 mm
17:59 14.2 °C -2.7 °C 1018.2 hPa North 1.6 km/h 14.5 km/h 31% 0 mm
18:04 14.2 °C -3.6 °C 1018.2 hPa NNW 6.4 km/h 16.1 km/h 29% 0 mm
18:09 14.2 °C -2.7 °C 1018.2 hPa NNW 3.2 km/h 16.1 km/h 31% 0 mm
18:14 14.2 °C -3.6 °C 1018.5 hPa NNW 3.2 km/h 12.9 km/h 29% 0 mm
18:19 14.2 °C -3.6 °C 1018.5 hPa North 3.2 km/h 14.5 km/h 29% 0 mm
18:25 13.9 °C -3.3 °C 1018.2 hPa Calm   14.5 km/h 30% 0 mm
18:34 13.5 °C -4.2 °C 1018.2 hPa North 1.6 km/h 11.3 km/h 29% 0 mm
18:39 13.2 °C -4 °C 1018.2 hPa Calm   11.3 km/h 30% 0 mm
18:45 13 °C -4.2 °C 1018.5 hPa NNW 1.6 km/h 11.3 km/h 30% 0 mm
18:49 12.8 °C -4.4 °C 1018.5 hPa NNW 4.8 km/h 19.3 km/h 30% 0 mm
18:55 12.6 °C -2.8 °C 1018.5 hPa NNE 3.2 km/h 19.3 km/h 34% 0 mm
19:05 12.1 °C -4.1 °C 1018.5 hPa NNW 1.6 km/h 8 km/h 32% 0 mm
19:10 11.9 °C -3.9 °C 1018.5 hPa Calm   8 km/h 33% 0 mm
19:15 11.6 °C -3.3 °C 1018.5 hPa Calm   9.7 km/h 35% 0 mm
19:20 11.3 °C -3.2 °C 1018.5 hPa NNW 1.6 km/h 9.7 km/h 36% 0 mm
19:25 11.3 °C -3.3 °C 1018.5 hPa Calm   11.3 km/h 36% 0 mm
19:30 11.3 °C -3.6 °C 1018.5 hPa NNW 4.8 km/h 16.1 km/h 35% 0 mm
19:35 11.5 °C -3.4 °C 1018.5 hPa Calm   16.1 km/h 35% 0 mm
19:40 11.6 °C -3.4 °C 1018.8 hPa NW 3.2 km/h 14.5 km/h 35% 0 mm
19:50 11.2 °C -2.9 °C 1018.5 hPa NNW 1.6 km/h 8 km/h 37% 0 mm
19:55 11 °C -3.9 °C 1018.5 hPa NNW 1.6 km/h 9.7 km/h 35% 0 mm
20:05 10.8 °C -4.1 °C 1018.5 hPa Calm   6.4 km/h 35% 0 mm
20:10 10.7 °C -4.6 °C 1018.5 hPa Calm   6.4 km/h 34% 0 mm
20:15 10.6 °C -3.9 °C 1018.5 hPa North 1.6 km/h 8 km/h 36% 0 mm
20:20 10.6 °C -3.9 °C 1018.8 hPa Calm   11.3 km/h 36% 0 mm
20:25 10.5 °C -3.9 °C 1018.8 hPa NNE 1.6 km/h 11.3 km/h 36% 0 mm
20:30 10.4 °C -2.9 °C 1018.8 hPa Calm   11.3 km/h 39% 0 mm
20:35 10.3 °C -3.1 °C 1018.8 hPa Calm   6.4 km/h 39% 0 mm
20:40 10.2 °C -2.5 °C 1018.8 hPa North 1.6 km/h 9.7 km/h 41% 0 mm
20:50 9.7 °C -3.3 °C 1018.8 hPa Calm   1.6 km/h 40% 0 mm
21:00 9.4 °C -2.8 °C 1018.8 hPa Calm   1.6 km/h 42% 0 mm
21:05 9.3 °C -2.9 °C 1018.8 hPa Calm   1.6 km/h 42% 0 mm
21:10 9.2 °C -2.8 °C 1018.8 hPa Calm   1.6 km/h 43% 0 mm
21:15 9.1 °C -2.9 °C 1018.8 hPa Calm   1.6 km/h 43% 0 mm
21:20 9 °C -2.6 °C 1018.8 hPa Calm   4.8 km/h 44% 0 mm
21:25 9.1 °C -2.9 °C 1019.2 hPa Calm   4.8 km/h 43% 0 mm
21:30 9.1 °C -3.2 °C 1019.2 hPa NE 1.6 km/h 4.8 km/h 42% 0 mm
21:35 9 °C -3.2 °C 1018.8 hPa Calm   8 km/h 42% 0 mm
21:40 8.9 °C -2.9 °C 1019.2 hPa Calm   8 km/h 43% 0 mm
21:45 8.8 °C -3.4 °C 1019.2 hPa Calm   6.4 km/h 42% 0 mm
21:50 8.6 °C -3.3 °C 1019.2 hPa Calm   8 km/h 43% 0 mm
22:00 8.4 °C -4.1 °C 1018.8 hPa Calm   6.4 km/h 41% 0 mm
22:05 8.4 °C -4.4 °C 1019.2 hPa Calm   4.8 km/h 40% 0 mm
22:10 8.3 °C -5.9 °C 1019.2 hPa North 1.6 km/h 6.4 km/h 36% 0 mm
22:15 8.3 °C -4.8 °C 1018.8 hPa Calm   6.4 km/h 39% 0 mm
22:20 8.3 °C -4.9 °C 1019.2 hPa Calm   3.2 km/h 39% 0 mm
22:25 8.2 °C -4.9 °C 1019.2 hPa Calm   3.2 km/h 39% 0 mm
22:30 8.1 °C -5.7 °C 1018.8 hPa NNE 1.6 km/h 8 km/h 37% 0 mm
22:35 8.1 °C -4.1 °C 1019.2 hPa NNE 1.6 km/h 9.7 km/h 42% 0 mm
22:40 7.9 °C -4.6 °C 1019.2 hPa NNE 1.6 km/h 11.3 km/h 41% 0 mm
22:45 7.7 °C -5.4 °C 1019.2 hPa Calm   11.3 km/h 39% 0 mm
22:50 7.7 °C -5.1 °C 1019.2 hPa Calm   9.7 km/h 40% 0 mm
22:55 7.6 °C -4.8 °C 1019.2 hPa Calm   6.4 km/h 41% 0 mm
23:00 7.5 °C -5.9 °C 1019.2 hPa Calm   6.4 km/h 38% 0 mm
23:05 7.4 °C -5.6 °C 1019.2 hPa NE 1.6 km/h 9.7 km/h 39% 0 mm
23:10 7.4 °C -5.3 °C 1019.2 hPa NE 1.6 km/h 14.5 km/h 40% 0 mm
23:15 7.3 °C -5.4 °C 1019.2 hPa North 1.6 km/h 14.5 km/h 40% 0 mm
23:20 7.2 °C -5.2 °C 1019.2 hPa Calm   8 km/h 41% 0 mm
23:25 7.1 °C -5.6 °C 1019.2 hPa Calm   8 km/h 40% 0 mm
23:30 7.1 °C -5.9 °C 1019.2 hPa NE 1.6 km/h 8 km/h 39% 0 mm
23:35 7.2 °C -5.2 °C 1019.2 hPa Calm   11.3 km/h 41% 0 mm
23:40 7.2 °C -6.6 °C 1019.2 hPa NE 3.2 km/h 12.9 km/h 37% 0 mm
23:50 7.6 °C -6.2 °C 1019.2 hPa NE 1.6 km/h 17.7 km/h 37% 0 mm
23:55 7.5 °C -5.9 °C 1019.2 hPa NNE 1.6 km/h 11.3 km/h 38% 0 mm
Westford Weather
Compliments of Weather Underground

 
 
Current Radar Loop:

Copyright © WestfordWeather.net 2007-2014. All rights reserved.